sensor_id;sensor_type;location;lat;lon;timestamp;temperature;humidity
54680;DHT22;40578;53.178;5.846;2022-12-11T00:02:19;0.30;99.90
54680;DHT22;40578;53.178;5.846;2022-12-11T00:04:45;0.30;99.90
54680;DHT22;40578;53.178;5.846;2022-12-11T00:07:10;-0.30;99.90
54680;DHT22;40578;53.178;5.846;2022-12-11T00:09:36;-0.20;99.90
54680;DHT22;40578;53.178;5.846;2022-12-11T00:12:02;-0.30;99.90
54680;DHT22;40578;53.178;5.846;2022-12-11T00:14:29;-0.30;99.90
54680;DHT22;40578;53.178;5.846;2022-12-11T00:16:56;-0.20;99.90
54680;DHT22;40578;53.178;5.846;2022-12-11T00:19:21;-0.30;99.90
54680;DHT22;40578;53.178;5.846;2022-12-11T00:21:47;-0.20;99.90
54680;DHT22;40578;53.178;5.846;2022-12-11T00:24:13;-0.10;99.90
54680;DHT22;40578;53.178;5.846;2022-12-11T00:26:38;-0.10;99.90
54680;DHT22;40578;53.178;5.846;2022-12-11T00:29:04;0.00;99.90
54680;DHT22;40578;53.178;5.846;2022-12-11T00:31:30;0.40;99.90
54680;DHT22;40578;53.178;5.846;2022-12-11T00:33:56;0.10;99.90
54680;DHT22;40578;53.178;5.846;2022-12-11T00:36:24;-0.10;99.90
54680;DHT22;40578;53.178;5.846;2022-12-11T00:38:50;0.40;99.90
54680;DHT22;40578;53.178;5.846;2022-12-11T00:41:16;0.20;99.90
54680;DHT22;40578;53.178;5.846;2022-12-11T00:43:42;-0.10;99.90
54680;DHT22;40578;53.178;5.846;2022-12-11T00:46:08;0.40;99.90
54680;DHT22;40578;53.178;5.846;2022-12-11T00:48:34;-0.20;99.90
54680;DHT22;40578;53.178;5.846;2022-12-11T00:50:59;0.40;99.90
54680;DHT22;40578;53.178;5.846;2022-12-11T00:53:25;0.30;99.90
54680;DHT22;40578;53.178;5.846;2022-12-11T00:55:51;-0.10;99.90
54680;DHT22;40578;53.178;5.846;2022-12-11T00:58:17;0.30;99.90
54680;DHT22;40578;53.178;5.846;2022-12-11T01:00:43;0.40;99.90
54680;DHT22;40578;53.178;5.846;2022-12-11T01:03:10;0.40;99.90
54680;DHT22;40578;53.178;5.846;2022-12-11T01:05:37;0.00;99.90
54680;DHT22;40578;53.178;5.846;2022-12-11T01:08:03;-0.20;99.90
54680;DHT22;40578;53.178;5.846;2022-12-11T01:10:28;0.50;99.90
54680;DHT22;40578;53.178;5.846;2022-12-11T01:13:00;0.90;99.90
54680;DHT22;40578;53.178;5.846;2022-12-11T01:15:29;-0.10;99.90
54680;DHT22;40578;53.178;5.846;2022-12-11T01:17:55;-0.20;99.90
54680;DHT22;40578;53.178;5.846;2022-12-11T01:20:22;0.00;99.90
54680;DHT22;40578;53.178;5.846;2022-12-11T01:22:50;0.50;99.90
54680;DHT22;40578;53.178;5.846;2022-12-11T01:25:16;0.00;99.90
54680;DHT22;40578;53.178;5.846;2022-12-11T01:27:41;0.40;99.90
54680;DHT22;40578;53.178;5.846;2022-12-11T01:30:08;0.40;99.90
54680;DHT22;40578;53.178;5.846;2022-12-11T01:32:35;-0.10;99.90
54680;DHT22;40578;53.178;5.846;2022-12-11T01:35:03;0.50;99.90
54680;DHT22;40578;53.178;5.846;2022-12-11T01:37:29;-0.10;99.90
54680;DHT22;40578;53.178;5.846;2022-12-11T01:39:55;0.50;99.90
54680;DHT22;40578;53.178;5.846;2022-12-11T01:42:21;0.00;99.90
54680;DHT22;40578;53.178;5.846;2022-12-11T01:47:12;-0.10;99.90
54680;DHT22;40578;53.178;5.846;2022-12-11T01:49:39;0.60;99.90
54680;DHT22;40578;53.178;5.846;2022-12-11T01:54:34;0.00;99.90
54680;DHT22;40578;53.178;5.846;2022-12-11T01:57:03;-0.30;99.90
54680;DHT22;40578;53.178;5.846;2022-12-11T01:59:32;0.60;99.90
54680;DHT22;40578;53.178;5.846;2022-12-11T02:02:03;0.00;99.90
54680;DHT22;40578;53.178;5.846;2022-12-11T02:04:32;0.00;99.90
54680;DHT22;40578;53.178;5.846;2022-12-11T02:06:58;0.10;99.90
54680;DHT22;40578;53.178;5.846;2022-12-11T02:09:33;0.60;99.90
54680;DHT22;40578;53.178;5.846;2022-12-11T02:17:55;0.30;99.90
54680;DHT22;40578;53.178;5.846;2022-12-11T02:23:32;0.30;99.90
54680;DHT22;40578;53.178;5.846;2022-12-11T02:28:53;0.70;99.90
54680;DHT22;40578;53.178;5.846;2022-12-11T02:34:09;0.10;99.90
54680;DHT22;40578;53.178;5.846;2022-12-11T02:36:39;0.20;99.90
54680;DHT22;40578;53.178;5.846;2022-12-11T02:39:09;0.70;99.90
54680;DHT22;40578;53.178;5.846;2022-12-11T02:41:39;0.10;99.90
54680;DHT22;40578;53.178;5.846;2022-12-11T02:44:10;0.10;99.90
54680;DHT22;40578;53.178;5.846;2022-12-11T02:46:37;0.60;99.90
54680;DHT22;40578;53.178;5.846;2022-12-11T02:49:04;0.60;99.90
54680;DHT22;40578;53.178;5.846;2022-12-11T02:51:35;1.60;99.90
54680;DHT22;40578;53.178;5.846;2022-12-11T02:54:02;0.80;99.90
54680;DHT22;40578;53.178;5.846;2022-12-11T02:56:35;0.60;99.90
54680;DHT22;40578;53.178;5.846;2022-12-11T02:59:07;0.70;99.90
54680;DHT22;40578;53.178;5.846;2022-12-11T03:01:34;0.20;99.90
54680;DHT22;40578;53.178;5.846;2022-12-11T03:04:00;0.20;99.90
54680;DHT22;40578;53.178;5.846;2022-12-11T03:06:33;0.80;99.90
54680;DHT22;40578;53.178;5.846;2022-12-11T03:09:00;0.50;99.90
54680;DHT22;40578;53.178;5.846;2022-12-11T03:11:26;0.20;99.90
54680;DHT22;40578;53.178;5.846;2022-12-11T03:13:52;0.30;99.90
54680;DHT22;40578;53.178;5.846;2022-12-11T03:16:38;0.40;99.90
54680;DHT22;40578;53.178;5.846;2022-12-11T03:19:27;0.90;99.90
54680;DHT22;40578;53.178;5.846;2022-12-11T03:22:06;0.90;99.90
54680;DHT22;40578;53.178;5.846;2022-12-11T03:24:40;0.90;99.90
54680;DHT22;40578;53.178;5.846;2022-12-11T03:29:41;0.40;99.90
54680;DHT22;40578;53.178;5.846;2022-12-11T03:32:12;0.70;99.90
54680;DHT22;40578;53.178;5.846;2022-12-11T03:34:43;-1.10;99.90
54680;DHT22;40578;53.178;5.846;2022-12-11T03:37:12;0.80;99.90
54680;DHT22;40578;53.178;5.846;2022-12-11T03:39:42;0.70;99.90
54680;DHT22;40578;53.178;5.846;2022-12-11T03:42:11;0.20;99.90
54680;DHT22;40578;53.178;5.846;2022-12-11T03:44:38;0.20;99.90
54680;DHT22;40578;53.178;5.846;2022-12-11T03:47:07;0.20;99.90
54680;DHT22;40578;53.178;5.846;2022-12-11T03:49:39;0.20;99.90
54680;DHT22;40578;53.178;5.846;2022-12-11T03:52:08;0.80;99.90
54680;DHT22;40578;53.178;5.846;2022-12-11T03:54:34;0.40;99.90
54680;DHT22;40578;53.178;5.846;2022-12-11T03:57:03;0.30;99.90
54680;DHT22;40578;53.178;5.846;2022-12-11T03:59:29;0.70;99.90
54680;DHT22;40578;53.178;5.846;2022-12-11T04:01:55;0.70;99.90
54680;DHT22;40578;53.178;5.846;2022-12-11T04:04:20;0.10;99.90
54680;DHT22;40578;53.178;5.846;2022-12-11T04:06:46;0.20;99.90
54680;DHT22;40578;53.178;5.846;2022-12-11T04:09:11;0.70;99.90
54680;DHT22;40578;53.178;5.846;2022-12-11T04:11:37;0.20;99.90
54680;DHT22;40578;53.178;5.846;2022-12-11T04:14:07;0.80;99.90
54680;DHT22;40578;53.178;5.846;2022-12-11T04:16:52;0.80;99.90
54680;DHT22;40578;53.178;5.846;2022-12-11T04:19:19;0.80;99.90
54680;DHT22;40578;53.178;5.846;2022-12-11T04:22:04;0.70;99.90
54680;DHT22;40578;53.178;5.846;2022-12-11T04:25:04;0.30;99.90
54680;DHT22;40578;53.178;5.846;2022-12-11T04:27:30;0.10;99.90
54680;DHT22;40578;53.178;5.846;2022-12-11T04:30:21;0.40;99.90
54680;DHT22;40578;53.178;5.846;2022-12-11T04:32:47;0.40;99.90
54680;DHT22;40578;53.178;5.846;2022-12-11T04:35:13;0.70;99.90
54680;DHT22;40578;53.178;5.846;2022-12-11T04:37:39;0.70;99.90
54680;DHT22;40578;53.178;5.846;2022-12-11T04:40:07;0.60;99.90
54680;DHT22;40578;53.178;5.846;2022-12-11T04:42:33;0.20;99.90
54680;DHT22;40578;53.178;5.846;2022-12-11T04:44:58;0.30;99.90
54680;DHT22;40578;53.178;5.846;2022-12-11T04:47:24;0.20;99.90
54680;DHT22;40578;53.178;5.846;2022-12-11T04:49:50;0.70;99.90
54680;DHT22;40578;53.178;5.846;2022-12-11T04:52:16;0.20;99.90
54680;DHT22;40578;53.178;5.846;2022-12-11T04:54:42;0.20;99.90
54680;DHT22;40578;53.178;5.846;2022-12-11T04:57:08;0.20;99.90
54680;DHT22;40578;53.178;5.846;2022-12-11T04:59:34;0.60;99.90
54680;DHT22;40578;53.178;5.846;2022-12-11T05:01:59;0.50;99.90
54680;DHT22;40578;53.178;5.846;2022-12-11T05:04:29;0.60;99.90
54680;DHT22;40578;53.178;5.846;2022-12-11T05:06:54;0.70;99.90
54680;DHT22;40578;53.178;5.846;2022-12-11T05:09:20;0.80;99.90
54680;DHT22;40578;53.178;5.846;2022-12-11T05:11:45;0.40;99.90
54680;DHT22;40578;53.178;5.846;2022-12-11T05:14:11;0.80;99.90
54680;DHT22;40578;53.178;5.846;2022-12-11T05:16:37;0.40;99.90
54680;DHT22;40578;53.178;5.846;2022-12-11T05:19:02;0.10;99.90
54680;DHT22;40578;53.178;5.846;2022-12-11T05:21:28;0.40;99.90
54680;DHT22;40578;53.178;5.846;2022-12-11T05:23:54;0.50;99.90
54680;DHT22;40578;53.178;5.846;2022-12-11T05:26:19;0.80;99.90
54680;DHT22;40578;53.178;5.846;2022-12-11T05:28:50;0.60;99.90
54680;DHT22;40578;53.178;5.846;2022-12-11T05:31:17;0.20;99.90
54680;DHT22;40578;53.178;5.846;2022-12-11T05:33:45;0.70;99.90
54680;DHT22;40578;53.178;5.846;2022-12-11T05:36:17;0.90;99.90
54680;DHT22;40578;53.178;5.846;2022-12-11T05:38:44;0.20;99.90
54680;DHT22;40578;53.178;5.846;2022-12-11T05:41:13;0.50;99.90
54680;DHT22;40578;53.178;5.846;2022-12-11T05:43:39;0.20;99.90
54680;DHT22;40578;53.178;5.846;2022-12-11T05:46:19;0.80;99.90
54680;DHT22;40578;53.178;5.846;2022-12-11T05:48:47;0.80;99.90
54680;DHT22;40578;53.178;5.846;2022-12-11T05:51:14;0.60;99.90
54680;DHT22;40578;53.178;5.846;2022-12-11T05:53:41;0.90;99.90
54680;DHT22;40578;53.178;5.846;2022-12-11T05:56:11;0.70;99.90
54680;DHT22;40578;53.178;5.846;2022-12-11T05:58:38;0.40;99.90
54680;DHT22;40578;53.178;5.846;2022-12-11T06:01:25;0.50;99.90
54680;DHT22;40578;53.178;5.846;2022-12-11T06:03:53;0.20;99.90
54680;DHT22;40578;53.178;5.846;2022-12-11T06:06:20;0.20;99.90
54680;DHT22;40578;53.178;5.846;2022-12-11T06:08:48;0.40;99.90
54680;DHT22;40578;53.178;5.846;2022-12-11T06:11:13;0.30;99.90
54680;DHT22;40578;53.178;5.846;2022-12-11T06:13:39;0.70;99.90
54680;DHT22;40578;53.178;5.846;2022-12-11T06:16:06;0.20;99.90
54680;DHT22;40578;53.178;5.846;2022-12-11T06:18:35;0.30;99.90
54680;DHT22;40578;53.178;5.846;2022-12-11T06:21:09;0.80;99.90
54680;DHT22;40578;53.178;5.846;2022-12-11T06:23:34;0.80;99.90
54680;DHT22;40578;53.178;5.846;2022-12-11T06:26:02;0.60;99.90
54680;DHT22;40578;53.178;5.846;2022-12-11T06:28:28;0.30;99.90
54680;DHT22;40578;53.178;5.846;2022-12-11T06:30:53;0.20;99.90
54680;DHT22;40578;53.178;5.846;2022-12-11T06:33:22;0.50;99.90
54680;DHT22;40578;53.178;5.846;2022-12-11T06:35:47;0.80;99.90
54680;DHT22;40578;53.178;5.846;2022-12-11T06:38:13;0.20;99.90
54680;DHT22;40578;53.178;5.846;2022-12-11T06:40:39;0.20;99.90
54680;DHT22;40578;53.178;5.846;2022-12-11T06:43:05;0.70;99.90
54680;DHT22;40578;53.178;5.846;2022-12-11T06:45:30;0.30;99.90
54680;DHT22;40578;53.178;5.846;2022-12-11T06:47:56;0.80;99.90
54680;DHT22;40578;53.178;5.846;2022-12-11T06:50:22;0.20;99.90
54680;DHT22;40578;53.178;5.846;2022-12-11T06:52:48;0.80;99.90
54680;DHT22;40578;53.178;5.846;2022-12-11T06:55:13;0.60;99.90
54680;DHT22;40578;53.178;5.846;2022-12-11T06:57:39;0.30;99.90
54680;DHT22;40578;53.178;5.846;2022-12-11T07:00:05;0.90;99.90
54680;DHT22;40578;53.178;5.846;2022-12-11T07:02:31;0.50;99.90
54680;DHT22;40578;53.178;5.846;2022-12-11T07:04:56;0.30;99.90
54680;DHT22;40578;53.178;5.846;2022-12-11T07:07:22;0.50;99.90
54680;DHT22;40578;53.178;5.846;2022-12-11T07:09:48;0.30;99.90
54680;DHT22;40578;53.178;5.846;2022-12-11T07:12:13;0.80;99.90
54680;DHT22;40578;53.178;5.846;2022-12-11T07:14:39;0.70;99.90
54680;DHT22;40578;53.178;5.846;2022-12-11T07:17:04;0.80;99.90
54680;DHT22;40578;53.178;5.846;2022-12-11T07:19:30;0.80;99.90
54680;DHT22;40578;53.178;5.846;2022-12-11T07:21:56;0.50;99.90
54680;DHT22;40578;53.178;5.846;2022-12-11T07:24:21;0.90;99.90
54680;DHT22;40578;53.178;5.846;2022-12-11T07:26:48;0.50;99.90
54680;DHT22;40578;53.178;5.846;2022-12-11T07:29:13;0.80;99.90
54680;DHT22;40578;53.178;5.846;2022-12-11T07:31:39;0.30;99.90
54680;DHT22;40578;53.178;5.846;2022-12-11T07:34:05;0.70;99.90
54680;DHT22;40578;53.178;5.846;2022-12-11T07:36:32;0.80;99.90
54680;DHT22;40578;53.178;5.846;2022-12-11T07:38:59;0.60;99.90
54680;DHT22;40578;53.178;5.846;2022-12-11T07:41:25;0.90;99.90
54680;DHT22;40578;53.178;5.846;2022-12-11T07:43:52;0.90;99.90
54680;DHT22;40578;53.178;5.846;2022-12-11T07:46:21;0.70;99.90
54680;DHT22;40578;53.178;5.846;2022-12-11T07:48:47;0.50;99.90
54680;DHT22;40578;53.178;5.846;2022-12-11T07:51:24;0.30;99.90
54680;DHT22;40578;53.178;5.846;2022-12-11T07:53:56;0.90;99.90
54680;DHT22;40578;53.178;5.846;2022-12-11T07:56:22;0.30;99.90
54680;DHT22;40578;53.178;5.846;2022-12-11T07:58:48;1.60;99.90
54680;DHT22;40578;53.178;5.846;2022-12-11T08:01:24;0.40;99.90
54680;DHT22;40578;53.178;5.846;2022-12-11T08:03:51;0.90;99.90
54680;DHT22;40578;53.178;5.846;2022-12-11T08:06:17;0.70;99.90
54680;DHT22;40578;53.178;5.846;2022-12-11T08:08:43;0.70;99.90
54680;DHT22;40578;53.178;5.846;2022-12-11T08:11:11;0.70;99.90
54680;DHT22;40578;53.178;5.846;2022-12-11T08:13:37;0.60;99.90
54680;DHT22;40578;53.178;5.846;2022-12-11T08:16:09;1.00;99.90
54680;DHT22;40578;53.178;5.846;2022-12-11T08:18:36;0.90;99.90
54680;DHT22;40578;53.178;5.846;2022-12-11T08:23:31;1.00;99.90
54680;DHT22;40578;53.178;5.846;2022-12-11T08:25:57;0.40;99.90
54680;DHT22;40578;53.178;5.846;2022-12-11T08:28:22;0.80;99.90
54680;DHT22;40578;53.178;5.846;2022-12-11T08:30:48;0.90;99.90
54680;DHT22;40578;53.178;5.846;2022-12-11T08:33:13;1.10;99.90
54680;DHT22;40578;53.178;5.846;2022-12-11T08:35:40;0.10;99.90
54680;DHT22;40578;53.178;5.846;2022-12-11T08:38:06;0.50;99.90
54680;DHT22;40578;53.178;5.846;2022-12-11T08:40:31;0.70;99.90
54680;DHT22;40578;53.178;5.846;2022-12-11T08:42:57;0.60;99.90
54680;DHT22;40578;53.178;5.846;2022-12-11T08:45:22;0.50;99.90
54680;DHT22;40578;53.178;5.846;2022-12-11T08:47:48;0.60;99.90
54680;DHT22;40578;53.178;5.846;2022-12-11T08:50:13;0.50;99.90
54680;DHT22;40578;53.178;5.846;2022-12-11T08:52:39;0.80;99.90
54680;DHT22;40578;53.178;5.846;2022-12-11T08:55:05;1.00;99.90
54680;DHT22;40578;53.178;5.846;2022-12-11T08:57:31;1.20;99.90
54680;DHT22;40578;53.178;5.846;2022-12-11T08:59:56;0.60;99.90
54680;DHT22;40578;53.178;5.846;2022-12-11T09:02:22;1.20;99.90
54680;DHT22;40578;53.178;5.846;2022-12-11T09:04:48;0.60;99.90
54680;DHT22;40578;53.178;5.846;2022-12-11T09:07:13;1.10;99.90
54680;DHT22;40578;53.178;5.846;2022-12-11T09:09:39;1.20;99.90
54680;DHT22;40578;53.178;5.846;2022-12-11T09:12:05;0.60;99.90
54680;DHT22;40578;53.178;5.846;2022-12-11T09:14:30;0.70;99.90
54680;DHT22;40578;53.178;5.846;2022-12-11T09:16:56;0.70;99.90
54680;DHT22;40578;53.178;5.846;2022-12-11T09:19:21;0.80;99.90
54680;DHT22;40578;53.178;5.846;2022-12-11T09:21:47;0.70;99.90
54680;DHT22;40578;53.178;5.846;2022-12-11T09:24:13;0.70;99.90
54680;DHT22;40578;53.178;5.846;2022-12-11T09:26:40;1.30;99.90
54680;DHT22;40578;53.178;5.846;2022-12-11T09:29:06;0.90;99.90
54680;DHT22;40578;53.178;5.846;2022-12-11T09:31:34;1.10;99.90
54680;DHT22;40578;53.178;5.846;2022-12-11T09:34:06;1.10;99.90
54680;DHT22;40578;53.178;5.846;2022-12-11T09:36:33;1.30;99.90
54680;DHT22;40578;53.178;5.846;2022-12-11T09:39:00;1.10;99.90
54680;DHT22;40578;53.178;5.846;2022-12-11T09:42:11;0.90;99.90
54680;DHT22;40578;53.178;5.846;2022-12-11T09:47:51;1.40;99.90
54680;DHT22;40578;53.178;5.846;2022-12-11T09:50:31;1.50;99.90
54680;DHT22;40578;53.178;5.846;2022-12-11T09:53:22;1.10;99.90
54680;DHT22;40578;53.178;5.846;2022-12-11T09:58:29;1.50;99.90
54680;DHT22;40578;53.178;5.846;2022-12-11T10:01:08;1.10;99.90
54680;DHT22;40578;53.178;5.846;2022-12-11T10:09:20;1.20;99.90
54680;DHT22;40578;53.178;5.846;2022-12-11T10:12:04;1.00;99.90
54680;DHT22;40578;53.178;5.846;2022-12-11T10:17:30;1.30;99.90
54680;DHT22;40578;53.178;5.846;2022-12-11T10:19:59;1.70;99.90
54680;DHT22;40578;53.178;5.846;2022-12-11T10:22:30;1.70;99.90
54680;DHT22;40578;53.178;5.846;2022-12-11T10:25:03;1.40;99.90
54680;DHT22;40578;53.178;5.846;2022-12-11T10:27:33;1.70;99.90
54680;DHT22;40578;53.178;5.846;2022-12-11T10:32:50;1.20;99.90
54680;DHT22;40578;53.178;5.846;2022-12-11T10:35:50;1.20;99.90
54680;DHT22;40578;53.178;5.846;2022-12-11T10:38:37;1.70;99.90
54680;DHT22;40578;53.178;5.846;2022-12-11T10:41:09;1.30;99.90
54680;DHT22;40578;53.178;5.846;2022-12-11T10:43:44;1.20;99.90
54680;DHT22;40578;53.178;5.846;2022-12-11T10:46:22;1.80;99.90
54680;DHT22;40578;53.178;5.846;2022-12-11T10:48:56;1.70;99.90
54680;DHT22;40578;53.178;5.846;2022-12-11T10:51:33;1.80;99.90
54680;DHT22;40578;53.178;5.846;2022-12-11T10:54:26;1.70;99.90
54680;DHT22;40578;53.178;5.846;2022-12-11T10:56:53;1.70;99.90
54680;DHT22;40578;53.178;5.846;2022-12-11T10:59:45;1.70;99.90
54680;DHT22;40578;53.178;5.846;2022-12-11T11:02:24;1.70;99.90
54680;DHT22;40578;53.178;5.846;2022-12-11T11:04:52;1.80;99.90
54680;DHT22;40578;53.178;5.846;2022-12-11T11:07:21;1.80;99.90
54680;DHT22;40578;53.178;5.846;2022-12-11T11:09:48;1.40;99.90
54680;DHT22;40578;53.178;5.846;2022-12-11T11:12:25;1.30;99.90
54680;DHT22;40578;53.178;5.846;2022-12-11T11:15:02;1.40;99.90
54680;DHT22;40578;53.178;5.846;2022-12-11T11:17:29;1.80;99.90
54680;DHT22;40578;53.178;5.846;2022-12-11T11:19:56;1.70;99.90
54680;DHT22;40578;53.178;5.846;2022-12-11T11:22:22;1.90;99.90
54680;DHT22;40578;53.178;5.846;2022-12-11T11:24:54;1.40;99.90
54680;DHT22;40578;53.178;5.846;2022-12-11T11:27:31;1.60;99.90
54680;DHT22;40578;53.178;5.846;2022-12-11T11:30:04;1.60;99.90
54680;DHT22;40578;53.178;5.846;2022-12-11T11:32:35;1.70;99.90
54680;DHT22;40578;53.178;5.846;2022-12-11T11:37:39;1.50;99.90
54680;DHT22;40578;53.178;5.846;2022-12-11T11:40:40;1.60;99.90
54680;DHT22;40578;53.178;5.846;2022-12-11T11:43:20;1.60;99.90
54680;DHT22;40578;53.178;5.846;2022-12-11T11:51:35;2.00;99.90
54680;DHT22;40578;53.178;5.846;2022-12-11T11:54:19;1.50;99.90
54680;DHT22;40578;53.178;5.846;2022-12-11T11:56:50;1.60;99.90
54680;DHT22;40578;53.178;5.846;2022-12-11T11:59:26;1.70;99.90
54680;DHT22;40578;53.178;5.846;2022-12-11T12:01:55;1.60;99.90
54680;DHT22;40578;53.178;5.846;2022-12-11T12:04:21;1.80;99.90
54680;DHT22;40578;53.178;5.846;2022-12-11T12:06:59;2.00;99.90
54680;DHT22;40578;53.178;5.846;2022-12-11T12:09:32;1.90;99.90
54680;DHT22;40578;53.178;5.846;2022-12-11T12:12:22;2.00;99.90
54680;DHT22;40578;53.178;5.846;2022-12-11T12:20:57;1.60;99.90
54680;DHT22;40578;53.178;5.846;2022-12-11T12:26:27;2.00;99.90
54680;DHT22;40578;53.178;5.846;2022-12-11T12:32:27;1.90;99.90
54680;DHT22;40578;53.178;5.846;2022-12-11T12:40:31;2.00;99.90
54680;DHT22;40578;53.178;5.846;2022-12-11T12:45:55;1.90;99.90
54680;DHT22;40578;53.178;5.846;2022-12-11T12:48:24;1.70;99.90
54680;DHT22;40578;53.178;5.846;2022-12-11T12:50:50;2.00;99.90
54680;DHT22;40578;53.178;5.846;2022-12-11T12:53:25;1.70;99.90
54680;DHT22;40578;53.178;5.846;2022-12-11T12:55:52;1.90;99.90
54680;DHT22;40578;53.178;5.846;2022-12-11T13:00:52;1.90;99.90
54680;DHT22;40578;53.178;5.846;2022-12-11T13:03:20;1.80;99.90
54680;DHT22;40578;53.178;5.846;2022-12-11T13:05:57;1.70;99.90
54680;DHT22;40578;53.178;5.846;2022-12-11T13:08:25;1.90;99.90
54680;DHT22;40578;53.178;5.846;2022-12-11T13:11:09;2.00;99.90
54680;DHT22;40578;53.178;5.846;2022-12-11T13:16:34;1.90;99.90
54680;DHT22;40578;53.178;5.846;2022-12-11T13:19:00;1.60;99.90
54680;DHT22;40578;53.178;5.846;2022-12-11T13:23:55;1.80;99.90
54680;DHT22;40578;53.178;5.846;2022-12-11T13:26:36;1.70;99.90
54680;DHT22;40578;53.178;5.846;2022-12-11T13:29:02;1.60;99.90
54680;DHT22;40578;53.178;5.846;2022-12-11T13:34:21;1.60;99.90
54680;DHT22;40578;53.178;5.846;2022-12-11T13:36:50;1.60;99.90
54680;DHT22;40578;53.178;5.846;2022-12-11T13:39:19;1.80;99.90
54680;DHT22;40578;53.178;5.846;2022-12-11T13:41:51;1.80;99.90
54680;DHT22;40578;53.178;5.846;2022-12-11T13:44:35;1.70;99.90
54680;DHT22;40578;53.178;5.846;2022-12-11T13:47:05;1.80;99.90
54680;DHT22;40578;53.178;5.846;2022-12-11T13:49:36;1.60;99.90
54680;DHT22;40578;53.178;5.846;2022-12-11T13:52:04;1.80;99.90
54680;DHT22;40578;53.178;5.846;2022-12-11T13:54:33;1.80;99.90
54680;DHT22;40578;53.178;5.846;2022-12-11T13:59:41;1.70;99.90
54680;DHT22;40578;53.178;5.846;2022-12-11T14:04:59;1.50;99.90
54680;DHT22;40578;53.178;5.846;2022-12-11T14:07:29;1.50;99.90
54680;DHT22;40578;53.178;5.846;2022-12-11T14:10:01;1.60;99.90
54680;DHT22;40578;53.178;5.846;2022-12-11T14:12:29;1.60;99.90
54680;DHT22;40578;53.178;5.846;2022-12-11T14:14:55;1.60;99.90
54680;DHT22;40578;53.178;5.846;2022-12-11T14:17:27;1.40;99.90
54680;DHT22;40578;53.178;5.846;2022-12-11T14:19:56;1.50;99.90
54680;DHT22;40578;53.178;5.846;2022-12-11T14:22:25;1.30;99.90
54680;DHT22;40578;53.178;5.846;2022-12-11T14:24:54;1.30;99.90
54680;DHT22;40578;53.178;5.846;2022-12-11T14:27:20;1.40;99.90
54680;DHT22;40578;53.178;5.846;2022-12-11T14:29:47;1.30;99.90
54680;DHT22;40578;53.178;5.846;2022-12-11T14:32:19;1.40;99.90
54680;DHT22;40578;53.178;5.846;2022-12-11T14:34:50;1.40;99.90
54680;DHT22;40578;53.178;5.846;2022-12-11T14:37:17;1.20;99.90
54680;DHT22;40578;53.178;5.846;2022-12-11T14:39:54;1.30;99.90
54680;DHT22;40578;53.178;5.846;2022-12-11T14:42:22;1.10;99.90
54680;DHT22;40578;53.178;5.846;2022-12-11T14:44:50;2.40;99.90
54680;DHT22;40578;53.178;5.846;2022-12-11T14:47:28;1.20;99.90
54680;DHT22;40578;53.178;5.846;2022-12-11T14:53:12;1.00;99.90
54680;DHT22;40578;53.178;5.846;2022-12-11T14:55:26;1.20;99.90
54680;DHT22;40578;53.178;5.846;2022-12-11T14:57:57;0.90;99.90
54680;DHT22;40578;53.178;5.846;2022-12-11T15:00:34;1.10;99.90
54680;DHT22;40578;53.178;5.846;2022-12-11T15:03:21;1.10;99.90
54680;DHT22;40578;53.178;5.846;2022-12-11T15:05:55;1.00;99.90
54680;DHT22;40578;53.178;5.846;2022-12-11T15:08:32;1.10;99.90
54680;DHT22;40578;53.178;5.846;2022-12-11T15:13:34;1.00;99.90
54680;DHT22;40578;53.178;5.846;2022-12-11T15:16:01;0.80;99.90
54680;DHT22;40578;53.178;5.846;2022-12-11T15:18:33;0.90;99.90
54680;DHT22;40578;53.178;5.846;2022-12-11T15:21:02;0.90;99.90
54680;DHT22;40578;53.178;5.846;2022-12-11T15:23:28;1.00;99.90
54680;DHT22;40578;53.178;5.846;2022-12-11T15:25:57;1.00;99.90
54680;DHT22;40578;53.178;5.846;2022-12-11T15:28:35;0.90;99.90
54680;DHT22;40578;53.178;5.846;2022-12-11T15:31:06;1.00;99.90
54680;DHT22;40578;53.178;5.846;2022-12-11T15:33:32;0.90;99.90
54680;DHT22;40578;53.178;5.846;2022-12-11T15:36:18;0.90;99.90
54680;DHT22;40578;53.178;5.846;2022-12-11T15:38:45;0.90;99.90
54680;DHT22;40578;53.178;5.846;2022-12-11T15:41:16;1.00;99.90
54680;DHT22;40578;53.178;5.846;2022-12-11T15:43:42;1.00;99.90
54680;DHT22;40578;53.178;5.846;2022-12-11T15:46:08;0.90;99.90
54680;DHT22;40578;53.178;5.846;2022-12-11T15:48:34;0.80;99.90
54680;DHT22;40578;53.178;5.846;2022-12-11T15:51:00;0.70;99.90
54680;DHT22;40578;53.178;5.846;2022-12-11T15:53:28;0.70;99.90
54680;DHT22;40578;53.178;5.846;2022-12-11T15:55:54;0.90;99.90
54680;DHT22;40578;53.178;5.846;2022-12-11T15:58:22;0.70;99.90
54680;DHT22;40578;53.178;5.846;2022-12-11T16:00:48;0.80;99.90
54680;DHT22;40578;53.178;5.846;2022-12-11T16:03:17;0.70;99.90
54680;DHT22;40578;53.178;5.846;2022-12-11T16:05:47;0.70;99.90
54680;DHT22;40578;53.178;5.846;2022-12-11T16:08:15;-0.90;99.90
54680;DHT22;40578;53.178;5.846;2022-12-11T16:10:42;0.80;99.90
54680;DHT22;40578;53.178;5.846;2022-12-11T16:13:09;0.80;99.90
54680;DHT22;40578;53.178;5.846;2022-12-11T16:15:35;0.80;99.90
54680;DHT22;40578;53.178;5.846;2022-12-11T16:18:04;0.80;99.90
54680;DHT22;40578;53.178;5.846;2022-12-11T16:20:32;0.60;99.90
54680;DHT22;40578;53.178;5.846;2022-12-11T16:22:58;0.80;99.90
54680;DHT22;40578;53.178;5.846;2022-12-11T16:25:25;0.60;99.90
54680;DHT22;40578;53.178;5.846;2022-12-11T16:27:54;0.70;99.90
54680;DHT22;40578;53.178;5.846;2022-12-11T16:30:20;0.60;99.90
54680;DHT22;40578;53.178;5.846;2022-12-11T16:32:46;0.50;99.90
54680;DHT22;40578;53.178;5.846;2022-12-11T16:35:11;0.70;99.90
54680;DHT22;40578;53.178;5.846;2022-12-11T16:37:37;0.50;99.90
54680;DHT22;40578;53.178;5.846;2022-12-11T16:40:04;0.70;99.90
54680;DHT22;40578;53.178;5.846;2022-12-11T16:42:31;0.70;99.90
54680;DHT22;40578;53.178;5.846;2022-12-11T16:45:24;0.70;99.90
54680;DHT22;40578;53.178;5.846;2022-12-11T16:47:51;0.70;99.90
54680;DHT22;40578;53.178;5.846;2022-12-11T16:50:17;0.60;99.90
54680;DHT22;40578;53.178;5.846;2022-12-11T16:52:44;0.50;99.90
54680;DHT22;40578;53.178;5.846;2022-12-11T16:55:11;0.60;99.90
54680;DHT22;40578;53.178;5.846;2022-12-11T16:57:37;0.70;99.90
54680;DHT22;40578;53.178;5.846;2022-12-11T17:00:08;0.70;99.90
54680;DHT22;40578;53.178;5.846;2022-12-11T17:02:36;0.70;99.90
54680;DHT22;40578;53.178;5.846;2022-12-11T17:05:02;0.50;99.90
54680;DHT22;40578;53.178;5.846;2022-12-11T17:07:27;0.60;99.90
54680;DHT22;40578;53.178;5.846;2022-12-11T17:09:53;0.60;99.90
54680;DHT22;40578;53.178;5.846;2022-12-11T17:12:19;0.40;99.90
54680;DHT22;40578;53.178;5.846;2022-12-11T17:14:50;0.50;99.90
54680;DHT22;40578;53.178;5.846;2022-12-11T17:17:15;0.50;99.90
54680;DHT22;40578;53.178;5.846;2022-12-11T17:19:41;0.40;99.90
54680;DHT22;40578;53.178;5.846;2022-12-11T17:22:06;0.60;99.90
54680;DHT22;40578;53.178;5.846;2022-12-11T17:24:32;0.40;99.90
54680;DHT22;40578;53.178;5.846;2022-12-11T17:26:58;0.50;99.90
54680;DHT22;40578;53.178;5.846;2022-12-11T17:29:24;0.60;99.90
54680;DHT22;40578;53.178;5.846;2022-12-11T17:31:49;0.50;99.90